AEA071 LEMD-SVMI
Flight info
| Callsign | AEA071 |
|---|---|
| Flight time | N/A |
| Altitude | 35000 |
| Route | CCS/N0489F370 DCT ORVED DCT MOMAS DCT ORSOS DCT KOMUT/M086F360 DCT 37N020W 32N030W/M086F380 25N040W 19N050W DCT DABAK/N0497F380 DCT LIBEV/N0489F400 DCT BORUS DCT BNE DCT VUDAL DCT OPLUD UN669 OPUTU DCT KOMPU NETSI1 |
| Aircraft | B789/H-SDE1E2E3FGHIJ2J3J4J5M1RWXY/LB1D1 |
Departure
| Time | 2026-04-30 11:36 |
|---|---|
| Airport | Adolfo Suárez Madrid–Barajas Airport (LEMD) |
Arrival
| Time | N/A |
|---|---|
| Airport | Maiquetía Simón Bolívar International Airport (SVMI) |
| Time | Latitude | Longitude | Altitude | Speed | Heading |
|---|---|---|---|---|---|
| 2026-04-30 10:59 | 40.45898 | -3.57115 | 1975 ft | 0 kts | 45° |
| 2026-04-30 11:21 | 40.45906 | -3.57103 | 1979 ft | 3 kts | 45° |
| 2026-04-30 11:21 | 40.45922 | -3.57082 | 1977 ft | 4 kts | 44° |
| 2026-04-30 11:21 | 40.45942 | -3.57056 | 1980 ft | 4 kts | 53° |
| 2026-04-30 11:22 | 40.45945 | -3.57025 | 1978 ft | 3 kts | 101° |
| 2026-04-30 11:22 | 40.45933 | -3.56994 | 1978 ft | 5 kts | 123° |
| 2026-04-30 11:22 | 40.45912 | -3.56963 | 1979 ft | 5 kts | 133° |
| 2026-04-30 11:22 | 40.45878 | -3.56916 | 1978 ft | 9 kts | 131° |
| 2026-04-30 11:23 | 40.45872 | -3.56887 | 1979 ft | 8 kts | 88° |
| 2026-04-30 11:23 | 40.45925 | -3.56797 | 1976 ft | 16 kts | 44° |
| 2026-04-30 11:23 | 40.46108 | -3.56752 | 1976 ft | 13 kts | 359° |
| 2026-04-30 11:24 | 40.46198 | -3.56752 | 1978 ft | 13 kts | 359° |
| 2026-04-30 11:24 | 40.46278 | -3.56728 | 1980 ft | 10 kts | 48° |
| 2026-04-30 11:24 | 40.46296 | -3.56645 | 1979 ft | 9 kts | 87° |
| 2026-04-30 11:25 | 40.46365 | -3.56591 | 1977 ft | 11 kts | 2° |
| 2026-04-30 11:25 | 40.46468 | -3.56584 | 1977 ft | 20 kts | 3° |
| 2026-04-30 11:25 | 40.46740 | -3.56563 | 1982 ft | 18 kts | 4° |
| 2026-04-30 11:26 | 40.46972 | -3.56547 | 1983 ft | 15 kts | 2° |
| 2026-04-30 11:26 | 40.47073 | -3.56571 | 1987 ft | 15 kts | 340° |
| 2026-04-30 11:26 | 40.47158 | -3.56638 | 1987 ft | 14 kts | 323° |
| 2026-04-30 11:27 | 40.47235 | -3.56714 | 1990 ft | 13 kts | 323° |
| 2026-04-30 11:27 | 40.47306 | -3.56787 | 1994 ft | 13 kts | 322° |
| 2026-04-30 11:27 | 40.47382 | -3.56864 | 1994 ft | 14 kts | 322° |
| 2026-04-30 11:27 | 40.47478 | -3.56961 | 1997 ft | 22 kts | 322° |
| 2026-04-30 11:28 | 40.47705 | -3.57192 | 2003 ft | 18 kts | 322° |
| 2026-04-30 11:28 | 40.47795 | -3.57284 | 2003 ft | 15 kts | 322° |
| 2026-04-30 11:28 | 40.47870 | -3.57360 | 2007 ft | 12 kts | 322° |
| 2026-04-30 11:29 | 40.47938 | -3.57429 | 2005 ft | 13 kts | 322° |
| 2026-04-30 11:29 | 40.48017 | -3.57510 | 2004 ft | 16 kts | 322° |
| 2026-04-30 11:29 | 40.48246 | -3.57742 | 2000 ft | 24 kts | 322° |
| 2026-04-30 11:30 | 40.48509 | -3.57979 | 2000 ft | 19 kts | 327° |
| 2026-04-30 11:30 | 40.48610 | -3.58045 | 2005 ft | 15 kts | 350° |
| 2026-04-30 11:30 | 40.48703 | -3.58049 | 2005 ft | 10 kts | 360° |
| 2026-04-30 11:31 | 40.48776 | -3.58050 | 2006 ft | 11 kts | 359° |
| 2026-04-30 11:31 | 40.48836 | -3.58035 | 2005 ft | 6 kts | 40° |
| 2026-04-30 11:31 | 40.48856 | -3.57963 | 2005 ft | 12 kts | 88° |
| 2026-04-30 11:31 | 40.48857 | -3.57837 | 2000 ft | 14 kts | 90° |
| 2026-04-30 11:32 | 40.48886 | -3.57730 | 1997 ft | 15 kts | 28° |
| 2026-04-30 11:32 | 40.48975 | -3.57721 | 1997 ft | 7 kts | 0° |
| 2026-04-30 11:32 | 40.49027 | -3.57721 | 1997 ft | 7 kts | 360° |
| 2026-04-30 11:33 | 40.49131 | -3.57721 | 1997 ft | 8 kts | 1° |
| 2026-04-30 11:33 | 40.49164 | -3.57681 | 1996 ft | 6 kts | 76° |
| 2026-04-30 11:33 | 40.49175 | -3.57619 | 1996 ft | 8 kts | 77° |
| 2026-04-30 11:33 | 40.49183 | -3.57588 | 1995 ft | 0 kts | 63° |
| 2026-04-30 11:34 | 40.49189 | -3.57573 | 1995 ft | 4 kts | 63° |
| 2026-04-30 11:34 | 40.49200 | -3.57544 | 1994 ft | 7 kts | 64° |
| 2026-04-30 11:34 | 40.49242 | -3.57460 | 1992 ft | 6 kts | 22° |
| 2026-04-30 11:35 | 40.49273 | -3.57452 | 1988 ft | 8 kts | 3° |
| 2026-04-30 11:35 | 40.49450 | -3.57453 | 1989 ft | 53 kts | 0° |
| 2026-04-30 11:35 | 40.50054 | -3.57457 | 1993 ft | 119 kts | 360° |
| 2026-04-30 11:35 | 40.51083 | -3.57463 | 2000 ft | 175 kts | 359° |
| 2026-04-30 11:36 | 40.52451 | -3.57455 | 2186 ft | 209 kts | 4° |
| 2026-04-30 11:36 | 40.53881 | -3.57448 | 3273 ft | 204 kts | 360° |
| 2026-04-30 11:36 | 40.55341 | -3.57559 | 3951 ft | 220 kts | 349° |
| 2026-04-30 11:36 | 40.56556 | -3.58656 | 4598 ft | 210 kts | 298° |
| 2026-04-30 11:37 | 40.57190 | -3.60384 | 5289 ft | 218 kts | 292° |
| 2026-04-30 11:37 | 40.58312 | -3.61870 | 5767 ft | 236 kts | 323° |
| 2026-04-30 11:37 | 40.59660 | -3.63096 | 6596 ft | 237 kts | 322° |
| 2026-04-30 11:37 | 40.60965 | -3.64424 | 7358 ft | 238 kts | 317° |
| 2026-04-30 11:38 | 40.62226 | -3.65846 | 8154 ft | 239 kts | 315° |
| 2026-04-30 11:38 | 40.63431 | -3.67368 | 8865 ft | 241 kts | 302° |
| 2026-04-30 11:38 | 40.64006 | -3.69402 | 9432 ft | 244 kts | 275° |
| 2026-04-30 11:38 | 40.63992 | -3.71737 | 9608 ft | 269 kts | 265° |
| 2026-04-30 11:39 | 40.63939 | -3.74281 | 10273 ft | 279 kts | 266° |
| 2026-04-30 11:39 | 40.63903 | -3.76945 | 10661 ft | 304 kts | 266° |
| 2026-04-30 11:39 | 40.63862 | -3.79862 | 10887 ft | 332 kts | 266° |
| 2026-04-30 11:39 | 40.63813 | -3.83023 | 11095 ft | 358 kts | 266° |
| 2026-04-30 11:40 | 40.63762 | -3.86330 | 11925 ft | 362 kts | 267° |
| 2026-04-30 11:40 | 40.63710 | -3.89669 | 12783 ft | 367 kts | 267° |
| 2026-04-30 11:40 | 40.63654 | -3.93047 | 13632 ft | 373 kts | 267° |
| 2026-04-30 11:40 | 40.63596 | -3.96440 | 14440 ft | 377 kts | 267° |
| 2026-04-30 11:41 | 40.63537 | -3.99958 | 15203 ft | 381 kts | 267° |
| 2026-04-30 11:41 | 40.63477 | -4.03417 | 15960 ft | 385 kts | 267° |
| 2026-04-30 11:41 | 40.63414 | -4.06954 | 16707 ft | 389 kts | 267° |
| 2026-04-30 11:41 | 40.63350 | -4.10536 | 17438 ft | 393 kts | 267° |
| 2026-04-30 11:42 | 40.63285 | -4.14160 | 18130 ft | 398 kts | 267° |
| 2026-04-30 11:42 | 40.63216 | -4.17813 | 18765 ft | 402 kts | 266° |
| 2026-04-30 11:42 | 40.63147 | -4.21506 | 19414 ft | 405 kts | 266° |
| 2026-04-30 11:42 | 40.63076 | -4.25225 | 20030 ft | 408 kts | 266° |
| 2026-04-30 11:43 | 40.63002 | -4.28976 | 20643 ft | 412 kts | 266° |
| 2026-04-30 11:43 | 40.62928 | -4.32764 | 21221 ft | 415 kts | 266° |
| 2026-04-30 11:43 | 40.62851 | -4.36566 | 21816 ft | 418 kts | 266° |
| 2026-04-30 11:43 | 40.62772 | -4.40412 | 22393 ft | 421 kts | 266° |
| 2026-04-30 11:44 | 40.62691 | -4.44286 | 22942 ft | 425 kts | 266° |
| 2026-04-30 11:44 | 40.62608 | -4.48188 | 23345 ft | 431 kts | 266° |
| 2026-04-30 11:44 | 40.62288 | -4.52094 | 23626 ft | 428 kts | 256° |
| 2026-04-30 11:44 | 40.61410 | -4.55823 | 23878 ft | 428 kts | 245° |
| 2026-04-30 11:45 | 40.59996 | -4.59273 | 24348 ft | 428 kts | 235° |
| 2026-04-30 11:45 | 40.58237 | -4.62444 | 24761 ft | 430 kts | 233° |
| 2026-04-30 11:45 | 40.56450 | -4.65607 | 25221 ft | 432 kts | 233° |
| 2026-04-30 11:45 | 40.54638 | -4.68775 | 25621 ft | 435 kts | 233° |
| 2026-04-30 11:46 | 40.52815 | -4.71968 | 26055 ft | 437 kts | 233° |
| 2026-04-30 11:46 | 40.50991 | -4.75181 | 26466 ft | 439 kts | 233° |
| 2026-04-30 11:46 | 40.49156 | -4.78406 | 26876 ft | 441 kts | 233° |
| 2026-04-30 11:46 | 40.47334 | -4.81595 | 27254 ft | 443 kts | 233° |
| 2026-04-30 11:47 | 40.45450 | -4.84887 | 27664 ft | 446 kts | 233° |
| 2026-04-30 11:47 | 40.43612 | -4.88103 | 28053 ft | 448 kts | 233° |
| 2026-04-30 11:47 | 40.41738 | -4.91378 | 28385 ft | 450 kts | 233° |
| 2026-04-30 11:47 | 40.39851 | -4.94670 | 28781 ft | 452 kts | 232° |
| 2026-04-30 11:48 | 40.37952 | -4.97978 | 29117 ft | 454 kts | 232° |
| 2026-04-30 11:48 | 40.36050 | -5.01288 | 29483 ft | 456 kts | 232° |
| 2026-04-30 11:48 | 40.34138 | -5.04613 | 29811 ft | 458 kts | 232° |